Time;durP1;ratioP1;P1;durP2;ratioP2;P2;SDS_P1;SDS_P2;PMS_P1;PMS_P2;Temp;Humidity;BMP_temperature;BMP_pressure;BME280_temperature;BME280_humidity;BME280_pressure;Samples;Min_cycle;Max_cycle;Signal;HPM_P1;HPM_P2
2021/04/19 00:00:55;;;;;;;21.50;15.77;;;;;;;;;;5135742;28;20088;-81
2021/04/19 00:03:22;;;;;;;18.65;13.63;;;;;;;;;;5135369;28;20043;-84
2021/04/19 00:05:49;;;;;;;18.92;14.50;;;;;;;;;;5135663;28;20036;-84
2021/04/19 00:08:15;;;;;;;17.73;13.07;;;;;;;;;;5135616;28;20441;-83
2021/04/19 00:10:42;;;;;;;18.70;14.05;;;;;;;;;;5135474;28;20043;-81
2021/04/19 00:13:08;;;;;;;19.85;13.10;;;;;;;;;;5135101;28;20027;-80
2021/04/19 00:15:35;;;;;;;19.63;14.38;;;;;;;;;;5134757;28;20040;-81
2021/04/19 00:18:01;;;;;;;21.05;15.20;;;;;;;;;;5135476;28;20043;-81
2021/04/19 00:20:30;;;;;;;18.10;14.10;;;;;;;;;;5134771;28;20039;-84
2021/04/19 00:22:56;;;;;;;21.92;14.57;;;;;;;;;;5133998;28;20091;-80
2021/04/19 00:25:23;;;;;;;22.67;14.77;;;;;;;;;;5132960;28;20112;-81
2021/04/19 00:27:49;;;;;;;19.17;14.13;;;;;;;;;;5133213;28;20067;-80
2021/04/19 00:30:16;;;;;;;22.95;14.70;;;;;;;;;;5133949;28;20043;-80
2021/04/19 00:32:42;;;;;;;20.70;15.10;;;;;;;;;;5134529;28;20085;-81
2021/04/19 00:35:09;;;;;;;20.95;14.93;;;;;;;;;;5136367;28;20083;-81
2021/04/19 00:37:36;;;;;;;24.02;16.33;;;;;;;;;;5136694;28;20083;-79
2021/04/19 00:40:06;;;;;;;22.58;15.95;;;;;;;;;;5136865;28;20035;-84
2021/04/19 00:42:33;;;;;;;22.02;15.68;;;;;;;;;;5136475;28;20043;-80
2021/04/19 00:44:59;;;;;;;21.65;15.63;;;;;;;;;;5135797;28;20043;-81
2021/04/19 00:47:26;;;;;;;20.40;15.38;;;;;;;;;;5135340;28;20048;-86
2021/04/19 00:49:53;;;;;;;23.00;14.98;;;;;;;;;;5135367;28;20129;-84
2021/04/19 00:52:20;;;;;;;22.33;16.85;;;;;;;;;;5134672;28;20040;-81
2021/04/19 00:54:46;;;;;;;29.95;18.00;;;;;;;;;;5133516;28;20047;-83
2021/04/19 00:57:13;;;;;;;22.27;16.92;;;;;;;;;;5134978;28;20582;-81
2021/04/19 00:59:39;;;;;;;20.33;15.98;;;;;;;;;;5134543;28;20237;-79
2021/04/19 01:02:06;;;;;;;22.45;15.70;;;;;;;;;;5135176;28;20065;-79
2021/04/19 01:04:33;;;;;;;21.50;16.13;;;;;;;;;;5133480;28;20040;-80
2021/04/19 01:07:00;;;;;;;24.70;16.60;;;;;;;;;;5133714;28;20044;-80
2021/04/19 01:09:27;;;;;;;27.92;18.77;;;;;;;;;;5134273;28;20059;-79
2021/04/19 01:11:54;;;;;;;25.70;17.80;;;;;;;;;;5134528;28;20065;-82
2021/04/19 01:14:20;;;;;;;21.98;16.20;;;;;;;;;;5115930;28;20031;-80
2021/04/19 01:16:47;;;;;;;21.67;16.25;;;;;;;;;;5116887;28;20111;-78
2021/04/19 01:19:13;;;;;;;24.55;17.05;;;;;;;;;;5101590;28;20043;-81
2021/04/19 01:21:39;;;;;;;26.00;18.13;;;;;;;;;;5135905;28;20068;-82
2021/04/19 01:24:05;;;;;;;22.65;16.27;;;;;;;;;;5117088;28;20035;-78
2021/04/19 01:26:32;;;;;;;24.70;18.02;;;;;;;;;;5134633;28;20048;-85
2021/04/19 01:28:58;;;;;;;25.15;17.38;;;;;;;;;;5134444;28;20039;-80
2021/04/19 01:31:24;;;;;;;25.02;17.33;;;;;;;;;;5134085;28;20039;-80
2021/04/19 01:33:50;;;;;;;26.67;18.67;;;;;;;;;;5133374;28;20031;-81
2021/04/19 01:36:17;;;;;;;24.75;17.70;;;;;;;;;;5133339;28;20031;-81
2021/04/19 01:38:43;;;;;;;23.85;17.88;;;;;;;;;;5132043;28;20473;-79
2021/04/19 01:41:09;;;;;;;23.95;16.40;;;;;;;;;;5131597;28;20100;-79
2021/04/19 01:43:35;;;;;;;24.33;18.23;;;;;;;;;;5114714;28;20038;-79
2021/04/19 01:46:02;;;;;;;25.58;17.65;;;;;;;;;;5132660;28;20058;-85
2021/04/19 01:48:28;;;;;;;24.25;17.85;;;;;;;;;;5132246;28;20124;-78
2021/04/19 01:50:56;;;;;;;21.73;17.00;;;;;;;;;;5133778;28;20055;-80
2021/04/19 01:53:22;;;;;;;23.40;17.13;;;;;;;;;;5119852;28;20044;-84
2021/04/19 01:55:49;;;;;;;21.60;16.27;;;;;;;;;;5133479;28;20047;-80
2021/04/19 01:58:16;;;;;;;22.85;16.85;;;;;;;;;;5134028;28;20098;-80
2021/04/19 02:00:44;;;;;;;23.33;17.55;;;;;;;;;;5113763;28;20039;-80
2021/04/19 02:03:29;;;;;;;25.90;17.63;;;;;;;;;;5130958;28;20036;-79
2021/04/19 02:06:14;;;;;;;22.02;16.70;;;;;;;;;;5130266;28;20043;-81
2021/04/19 02:09:01;;;;;;;23.70;16.95;;;;;;;;;;5132329;28;20106;-84
2021/04/19 02:11:46;;;;;;;20.55;16.42;;;;;;;;;;5114965;28;20044;-81
2021/04/19 02:14:23;;;;;;;26.45;16.58;;;;;;;;;;5114938;28;20101;-86
2021/04/19 02:17:07;;;;;;;27.40;16.63;;;;;;;;;;5115265;28;20047;-79
2021/04/19 02:19:33;;;;;;;23.75;18.25;;;;;;;;;;5116131;28;20027;-83
2021/04/19 02:22:03;;;;;;;21.33;15.45;;;;;;;;;;5116604;28;20044;-80
2021/04/19 02:24:30;;;;;;;20.42;16.95;;;;;;;;;;5133839;28;20050;-81
2021/04/19 02:26:58;;;;;;;24.17;16.63;;;;;;;;;;5134531;28;20036;-84
2021/04/19 02:29:32;;;;;;;21.27;16.90;;;;;;;;;;5135153;28;20036;-81
2021/04/19 02:32:05;;;;;;;21.50;16.67;;;;;;;;;;5135442;28;20044;-79
2021/04/19 02:34:33;;;;;;;24.50;17.63;;;;;;;;;;5117002;28;20063;-80
2021/04/19 02:36:59;;;;;;;19.80;16.23;;;;;;;;;;5115834;28;20066;-79
2021/04/19 02:39:26;;;;;;;23.08;16.85;;;;;;;;;;5131098;28;20043;-79
2021/04/19 02:41:53;;;;;;;24.08;17.13;;;;;;;;;;5113340;28;20111;-85
2021/04/19 02:44:21;;;;;;;21.90;16.70;;;;;;;;;;5129502;28;20835;-82
2021/04/19 02:46:49;;;;;;;22.23;16.92;;;;;;;;;;5134433;28;20038;-83
2021/04/19 02:49:16;;;;;;;27.52;15.98;;;;;;;;;;5135349;28;20099;-82
2021/04/19 02:51:43;;;;;;;24.50;16.80;;;;;;;;;;5134846;28;20040;-82
2021/04/19 02:54:11;;;;;;;21.88;16.52;;;;;;;;;;5117901;28;20031;-82
2021/04/19 02:56:37;;;;;;;24.33;17.60;;;;;;;;;;5134765;28;20043;-82
2021/04/19 02:59:06;;;;;;;23.80;17.40;;;;;;;;;;5134771;28;20052;-81
2021/04/19 03:01:34;;;;;;;27.52;18.20;;;;;;;;;;5135081;28;20042;-83
2021/04/19 03:04:08;;;;;;;23.15;18.10;;;;;;;;;;5118793;28;20038;-80
2021/04/19 03:06:37;;;;;;;21.63;16.88;;;;;;;;;;5135885;28;20104;-82
2021/04/19 03:09:04;;;;;;;25.30;18.48;;;;;;;;;;5118944;28;20032;-78
2021/04/19 03:11:32;;;;;;;24.48;16.92;;;;;;;;;;5136757;28;20574;-84
2021/04/19 03:14:00;;;;;;;23.85;16.63;;;;;;;;;;5136279;28;20019;-84
2021/04/19 03:16:28;;;;;;;23.02;17.42;;;;;;;;;;5136229;28;20059;-87
2021/04/19 03:18:54;;;;;;;26.70;18.13;;;;;;;;;;5118026;28;20043;-82
2021/04/19 03:21:22;;;;;;;23.83;17.80;;;;;;;;;;5136213;28;20043;-84
2021/04/19 03:23:50;;;;;;;27.15;19.52;;;;;;;;;;5136537;28;20055;-85
2021/04/19 03:26:17;;;;;;;24.20;17.85;;;;;;;;;;5136416;28;20048;-85
2021/04/19 03:28:47;;;;;;;23.88;17.00;;;;;;;;;;5135813;28;20023;-83
2021/04/19 03:31:19;;;;;;;25.73;18.20;;;;;;;;;;5135883;28;20048;-82
2021/04/19 03:33:46;;;;;;;23.63;17.23;;;;;;;;;;5135788;28;20063;-80
2021/04/19 03:36:14;;;;;;;22.73;18.13;;;;;;;;;;5135315;28;20059;-83
2021/04/19 03:38:41;;;;;;;25.70;19.38;;;;;;;;;;5134185;28;20039;-82
2021/04/19 03:41:09;;;;;;;21.88;17.95;;;;;;;;;;5134520;28;20047;-80
2021/04/19 03:43:36;;;;;;;26.52;19.05;;;;;;;;;;5135180;28;20050;-82
2021/04/19 03:46:04;;;;;;;20.88;18.30;;;;;;;;;;5135405;28;20062;-81
2021/04/19 03:48:30;;;;;;;22.90;18.65;;;;;;;;;;5135658;28;20047;-85
2021/04/19 03:51:02;;;;;;;23.13;18.20;;;;;;;;;;5135585;28;20086;-83
2021/04/19 03:53:29;;;;;;;24.55;18.88;;;;;;;;;;5135434;28;20091;-80
2021/04/19 03:55:57;;;;;;;26.73;19.83;;;;;;;;;;5117315;28;20070;-81
2021/04/19 03:58:25;;;;;;;24.83;18.60;;;;;;;;;;5134313;28;20039;-80
2021/04/19 04:00:53;;;;;;;25.02;18.92;;;;;;;;;;5134605;28;20066;-80
2021/04/19 04:03:19;;;;;;;30.20;19.27;;;;;;;;;;5133501;28;20044;-82
2021/04/19 04:05:47;;;;;;;24.05;18.50;;;;;;;;;;5132572;28;20433;-82
2021/04/19 04:08:14;;;;;;;29.60;19.58;;;;;;;;;;5133429;28;20028;-81
2021/04/19 04:10:41;;;;;;;26.92;20.50;;;;;;;;;;5136394;28;20047;-82
2021/04/19 04:13:07;;;;;;;25.52;19.75;;;;;;;;;;5137756;28;20036;-81
2021/04/19 04:15:33;;;;;;;22.92;18.23;;;;;;;;;;5137884;28;20040;-79
2021/04/19 04:18:02;;;;;;;24.77;18.98;;;;;;;;;;5117245;28;20059;-81
2021/04/19 04:20:28;;;;;;;28.58;18.83;;;;;;;;;;5132098;28;20139;-79
2021/04/19 04:22:55;;;;;;;22.90;19.63;;;;;;;;;;5129901;28;20061;-85
2021/04/19 04:25:21;;;;;;;22.27;19.85;;;;;;;;;;5115536;28;20046;-84
2021/04/19 04:27:47;;;;;;;30.85;21.15;;;;;;;;;;5137916;28;20043;-81
2021/04/19 04:30:14;;;;;;;27.95;20.27;;;;;;;;;;5139808;28;20051;-80
2021/04/19 04:32:40;;;;;;;23.63;20.20;;;;;;;;;;5121164;28;20023;-80
2021/04/19 04:35:07;;;;;;;26.98;20.75;;;;;;;;;;5121411;28;20038;-81
2021/04/19 04:37:33;;;;;;;26.10;20.35;;;;;;;;;;5138717;28;20081;-80
2021/04/19 04:39:59;;;;;;;27.35;21.10;;;;;;;;;;5138364;28;20035;-80
2021/04/19 04:42:27;;;;;;;26.27;20.45;;;;;;;;;;5139679;28;20112;-81
2021/04/19 04:44:54;;;;;;;25.00;20.33;;;;;;;;;;5139067;28;20028;-83
2021/04/19 04:47:25;;;;;;;29.08;22.98;;;;;;;;;;5121001;28;20027;-82
2021/04/19 04:50:06;;;;;;;28.00;22.75;;;;;;;;;;5139397;28;20047;-84
2021/04/19 04:52:36;;;;;;;28.80;21.90;;;;;;;;;;5139371;28;20035;-84
2021/04/19 04:55:04;;;;;;;28.17;21.45;;;;;;;;;;5138864;28;20027;-82
2021/04/19 04:57:31;;;;;;;32.83;23.50;;;;;;;;;;5138259;28;20039;-82
2021/04/19 04:59:59;;;;;;;26.35;21.25;;;;;;;;;;5138088;28;20095;-83
2021/04/19 05:02:27;;;;;;;24.58;21.02;;;;;;;;;;5138086;28;20040;-83
2021/04/19 05:04:53;;;;;;;28.98;21.80;;;;;;;;;;5137379;28;20028;-81
2021/04/19 05:07:21;;;;;;;30.02;20.88;;;;;;;;;;5137582;28;20047;-81
2021/04/19 05:09:49;;;;;;;28.73;20.70;;;;;;;;;;5137764;28;20039;-82
2021/04/19 05:12:15;;;;;;;26.63;20.52;;;;;;;;;;5137069;28;20043;-83
2021/04/19 05:14:55;;;;;;;28.13;20.42;;;;;;;;;;5138006;28;20084;-84
2021/04/19 05:17:21;;;;;;;30.35;20.95;;;;;;;;;;5137872;28;20064;-79
2021/04/19 05:19:47;;;;;;;27.33;20.60;;;;;;;;;;5139062;28;20024;-85
2021/04/19 05:22:14;;;;;;;28.35;20.55;;;;;;;;;;5137641;28;20044;-83
2021/04/19 05:24:40;;;;;;;25.02;18.95;;;;;;;;;;5137170;28;20036;-82
2021/04/19 05:27:07;;;;;;;22.65;18.30;;;;;;;;;;5136989;28;20048;-78
2021/04/19 05:29:33;;;;;;;25.92;18.40;;;;;;;;;;5136432;28;20036;-81
2021/04/19 05:32:01;;;;;;;26.00;19.25;;;;;;;;;;5136358;28;20027;-79
2021/04/19 05:34:27;;;;;;;22.73;18.63;;;;;;;;;;5136675;28;20040;-81
2021/04/19 05:36:54;;;;;;;24.35;18.80;;;;;;;;;;5136286;28;20148;-81
2021/04/19 05:39:20;;;;;;;25.20;18.27;;;;;;;;;;5119539;28;20032;-82
2021/04/19 05:41:47;;;;;;;24.45;18.50;;;;;;;;;;5136721;28;20035;-81
2021/04/19 05:44:13;;;;;;;23.98;18.88;;;;;;;;;;5135733;28;20050;-83
2021/04/19 05:46:39;;;;;;;26.58;19.65;;;;;;;;;;5135173;28;20058;-82
2021/04/19 05:49:06;;;;;;;23.75;19.35;;;;;;;;;;5134881;28;20054;-81
2021/04/19 05:51:50;;;;;;;26.38;18.13;;;;;;;;;;5117028;28;20163;-81
2021/04/19 05:54:17;;;;;;;29.85;22.67;;;;;;;;;;5118398;28;20043;-81
2021/04/19 05:57:11;;;;;;;24.02;19.73;;;;;;;;;;5135522;28;20050;-84
2021/04/19 05:59:37;;;;;;;21.42;17.85;;;;;;;;;;5131771;28;20040;-82
2021/04/19 06:02:04;;;;;;;23.85;18.02;;;;;;;;;;5134947;28;20486;-80
2021/04/19 06:04:40;;;;;;;23.58;18.73;;;;;;;;;;5132890;28;20038;-81
2021/04/19 06:07:11;;;;;;;24.42;18.38;;;;;;;;;;5130668;28;20043;-84
2021/04/19 06:09:37;;;;;;;;;;;;;;;;;;5135071;28;21448;-81
2021/04/19 06:12:16;;;;;;;25.08;18.17;;;;;;;;;;5116891;28;20006;-81
2021/04/19 06:14:43;;;;;;;24.52;18.27;;;;;;;;;;5135544;28;20095;-80
2021/04/19 06:17:10;;;;;;;22.35;16.40;;;;;;;;;;5133830;28;20050;-84
2021/04/19 06:19:37;;;;;;;26.33;18.13;;;;;;;;;;5118752;28;20032;-82
2021/04/19 06:22:04;;;;;;;22.33;18.40;;;;;;;;;;5135709;28;20036;-83
2021/04/19 06:24:31;;;;;;;21.35;17.77;;;;;;;;;;5134980;28;20040;-85
2021/04/19 06:26:58;;;;;;;23.38;17.70;;;;;;;;;;5134325;28;20180;-86
2021/04/19 06:29:28;;;;;;;19.52;16.52;;;;;;;;;;5118023;28;20087;-87
2021/04/19 06:31:56;;;;;;;22.98;17.92;;;;;;;;;;5133775;28;20027;-81
2021/04/19 06:34:28;;;;;;;20.80;18.25;;;;;;;;;;5118391;28;20032;-86
2021/04/19 06:36:54;;;;;;;25.52;18.23;;;;;;;;;;5135485;28;20043;-83
2021/04/19 06:39:21;;;;;;;23.90;17.92;;;;;;;;;;5135751;28;20051;-86
2021/04/19 06:41:48;;;;;;;20.95;17.77;;;;;;;;;;5135817;28;20050;-82
2021/04/19 06:44:15;;;;;;;27.00;18.33;;;;;;;;;;5118812;28;20057;-83
2021/04/19 06:46:42;;;;;;;21.85;16.42;;;;;;;;;;5118719;28;20028;-86
2021/04/19 06:49:09;;;;;;;22.55;16.95;;;;;;;;;;5133029;28;20067;-82
2021/04/19 06:51:36;;;;;;;23.48;16.50;;;;;;;;;;5133548;28;20050;-79
2021/04/19 06:54:03;;;;;;;18.17;15.32;;;;;;;;;;5132590;28;20046;-83
2021/04/19 06:56:37;;;;;;;18.55;15.70;;;;;;;;;;5134098;28;20043;-83
2021/04/19 06:59:05;;;;;;;21.98;16.77;;;;;;;;;;5113261;28;20047;-82
2021/04/19 07:01:32;;;;;;;18.25;16.00;;;;;;;;;;5131781;28;20066;-79
2021/04/19 07:04:03;;;;;;;18.25;15.50;;;;;;;;;;5130725;28;20036;-83
2021/04/19 07:06:32;;;;;;;22.83;16.48;;;;;;;;;;5130166;28;20036;-84
2021/04/19 07:09:28;;;;;;;20.27;16.63;;;;;;;;;;5127776;28;20039;-82
2021/04/19 07:12:04;;;;;;;20.35;16.65;;;;;;;;;;5104893;28;20112;-84
2021/04/19 07:14:37;;;;;;;16.40;14.60;;;;;;;;;;5125886;28;20039;-84
2021/04/19 07:17:06;;;;;;;17.20;15.35;;;;;;;;;;5124174;28;20555;-79
2021/04/19 07:19:33;;;;;;;15.45;13.68;;;;;;;;;;5125697;28;20488;-80
2021/04/19 07:22:01;;;;;;;17.85;15.88;;;;;;;;;;5123424;28;20501;-80
2021/04/19 07:24:27;;;;;;;19.35;15.20;;;;;;;;;;5122842;28;20055;-78
2021/04/19 07:26:57;;;;;;;19.95;15.40;;;;;;;;;;5102808;28;21106;-82
2021/04/19 07:29:24;;;;;;;16.63;14.93;;;;;;;;;;5116070;28;20108;-80
2021/04/19 07:31:55;;;;;;;18.83;15.30;;;;;;;;;;5122286;28;20089;-81
2021/04/19 07:34:23;;;;;;;18.27;14.13;;;;;;;;;;5096661;28;20043;-83
2021/04/19 07:36:50;;;;;;;21.13;15.07;;;;;;;;;;5121363;28;20036;-81
2021/04/19 07:39:18;;;;;;;18.55;14.43;;;;;;;;;;5112040;28;20097;-79
2021/04/19 07:41:45;;;;;;;14.45;13.02;;;;;;;;;;5107826;28;20028;-79
2021/04/19 07:44:12;;;;;;;16.58;14.75;;;;;;;;;;5113124;28;20383;-81
2021/04/19 07:46:38;;;;;;;18.00;15.30;;;;;;;;;;5118850;28;20040;-81
2021/04/19 07:49:08;;;;;;;14.90;13.32;;;;;;;;;;5097724;28;20491;-81
2021/04/19 07:51:36;;;;;;;20.60;13.98;;;;;;;;;;5112395;28;20043;-78
2021/04/19 07:54:17;;;;;;;15.23;12.85;;;;;;;;;;5116471;28;20050;-79
2021/04/19 07:56:45;;;;;;;15.20;12.77;;;;;;;;;;5110498;28;20508;-82
2021/04/19 07:59:21;;;;;;;16.65;13.25;;;;;;;;;;5117902;28;20079;-82
2021/04/19 08:01:58;;;;;;;15.82;13.88;;;;;;;;;;5119353;28;20036;-80
2021/04/19 08:04:29;;;;;;;13.65;11.77;;;;;;;;;;5113355;28;20040;-82
2021/04/19 08:06:56;;;;;;;19.95;13.23;;;;;;;;;;5104884;28;20506;-81
2021/04/19 08:09:40;;;;;;;18.65;14.35;;;;;;;;;;5121143;28;20070;-81
2021/04/19 08:12:08;;;;;;;21.52;13.55;;;;;;;;;;5117864;28;20056;-83
2021/04/19 08:14:51;;;;;;;15.90;11.93;;;;;;;;;;5122509;28;20444;-82
2021/04/19 08:17:18;;;;;;;16.58;12.30;;;;;;;;;;5127942;28;20097;-80
2021/04/19 08:19:45;;;;;;;15.00;13.32;;;;;;;;;;5103642;28;20031;-81
2021/04/19 08:22:16;;;;;;;16.10;12.90;;;;;;;;;;5117456;28;20071;-79
2021/04/19 08:24:43;;;;;;;17.55;11.68;;;;;;;;;;5133061;28;20031;-80
2021/04/19 08:27:18;;;;;;;19.58;12.93;;;;;;;;;;5134752;28;20044;-80
2021/04/19 08:29:46;;;;;;;16.17;12.15;;;;;;;;;;5116822;28;20048;-78
2021/04/19 08:32:13;;;;;;;16.50;12.25;;;;;;;;;;5098409;28;20040;-80
2021/04/19 08:34:41;;;;;;;13.38;11.82;;;;;;;;;;5116710;28;20039;-84
2021/04/19 08:37:10;;;;;;;17.08;12.52;;;;;;;;;;5116541;28;20040;-83
2021/04/19 08:39:38;;;;;;;16.00;13.38;;;;;;;;;;5122028;28;20067;-82
2021/04/19 08:42:05;;;;;;;15.45;12.25;;;;;;;;;;5102239;28;20067;-80
2021/04/19 08:44:32;;;;;;;13.13;11.70;;;;;;;;;;5123211;28;20103;-82
2021/04/19 08:47:00;;;;;;;12.30;11.10;;;;;;;;;;5126536;28;20044;-80
2021/04/19 08:49:27;;;;;;;14.30;11.90;;;;;;;;;;5127433;28;20040;-82
2021/04/19 08:51:54;;;;;;;14.32;12.23;;;;;;;;;;5127243;28;20034;-79
2021/04/19 08:54:21;;;;;;;13.10;10.23;;;;;;;;;;5111531;28;20039;-81
2021/04/19 08:56:48;;;;;;;11.55;10.45;;;;;;;;;;5110540;28;20031;-82
2021/04/19 08:59:16;;;;;;;13.93;11.00;;;;;;;;;;5130802;28;20043;-81
2021/04/19 09:01:43;;;;;;;12.90;11.05;;;;;;;;;;5126472;28;20197;-82
2021/04/19 09:04:10;;;;;;;11.57;10.38;;;;;;;;;;5129125;28;20054;-81
2021/04/19 09:06:46;;;;;;;11.38;10.32;;;;;;;;;;5110074;28;20015;-79
2021/04/19 09:09:14;;;;;;;12.43;10.35;;;;;;;;;;5125527;28;20032;-83
2021/04/19 09:11:40;;;;;;;11.48;10.40;;;;;;;;;;5123175;28;20043;-82
2021/04/19 09:14:10;;;;;;;12.68;11.20;;;;;;;;;;5118247;28;20096;-80
2021/04/19 09:16:40;;;;;;;13.32;11.38;;;;;;;;;;5125245;28;20197;-81
2021/04/19 09:19:07;;;;;;;11.73;10.53;;;;;;;;;;5105049;28;20032;-84
2021/04/19 09:21:41;;;;;;;12.02;10.80;;;;;;;;;;5127290;28;20503;-81
2021/04/19 09:24:09;;;;;;;15.43;11.10;;;;;;;;;;5129360;28;20040;-81
2021/04/19 09:26:45;;;;;;;12.65;10.93;;;;;;;;;;5128555;28;20023;-82
2021/04/19 09:29:32;;;;;;;14.00;11.27;;;;;;;;;;5131814;28;20063;-80
2021/04/19 09:31:59;;;;;;;12.02;10.75;;;;;;;;;;5126690;28;20052;-83
2021/04/19 09:34:41;;;;;;;13.15;11.43;;;;;;;;;;5122938;28;20036;-81
2021/04/19 09:37:13;;;;;;;12.40;10.68;;;;;;;;;;5118826;28;20281;-81
2021/04/19 09:39:54;;;;;;;10.48;9.43;;;;;;;;;;5100021;28;20044;-81
2021/04/19 09:42:39;;;;;;;13.25;11.02;;;;;;;;;;5119006;28;20043;-81
2021/04/19 09:45:07;;;;;;;12.70;11.30;;;;;;;;;;5120903;28;20046;-80
2021/04/19 09:47:52;;;;;;;12.18;11.02;;;;;;;;;;5114345;28;20040;-80
2021/04/19 09:50:23;;;;;;;11.50;10.35;;;;;;;;;;5104674;28;20062;-84
2021/04/19 09:52:50;;;;;;;;;;;;;;;;;;5115219;28;20036;-82
2021/04/19 09:55:17;;;;;;;13.18;11.80;;;;;;;;;;5104242;28;19995;-81
2021/04/19 09:57:43;;;;;;;12.65;11.45;;;;;;;;;;5104737;28;20048;-80
2021/04/19 10:00:11;;;;;;;12.82;11.50;;;;;;;;;;5126690;28;20051;-79
2021/04/19 10:02:40;;;;;;;14.82;12.73;;;;;;;;;;5115970;28;20043;-80
2021/04/19 10:05:07;;;;;;;19.63;12.50;;;;;;;;;;5094780;28;20047;-82
2021/04/19 10:07:37;;;;;;;14.35;12.32;;;;;;;;;;5114025;28;20054;-81
2021/04/19 10:10:04;;;;;;;13.65;12.32;;;;;;;;;;5102683;28;20044;-80
2021/04/19 10:12:34;;;;;;;14.63;12.27;;;;;;;;;;5112999;28;20036;-81
2021/04/19 10:15:00;;;;;;;13.18;11.93;;;;;;;;;;5112212;28;20432;-79
2021/04/19 10:17:32;;;;;;;14.68;13.00;;;;;;;;;;5122437;28;20043;-85
2021/04/19 10:20:14;;;;;;;14.80;13.40;;;;;;;;;;5110454;28;20481;-80
2021/04/19 10:22:41;;;;;;;13.85;12.45;;;;;;;;;;5121933;28;20044;-80
2021/04/19 10:25:08;;;;;;;14.43;13.02;;;;;;;;;;5117508;28;20040;-80
2021/04/19 10:27:35;;;;;;;13.27;11.95;;;;;;;;;;5112922;28;20055;-80
2021/04/19 10:30:16;;;;;;;14.02;12.55;;;;;;;;;;5107015;28;20063;-82
2021/04/19 10:32:46;;;;;;;14.38;12.98;;;;;;;;;;5118604;28;20065;-81
2021/04/19 10:35:29;;;;;;;13.07;11.88;;;;;;;;;;5113784;28;20074;-80
2021/04/19 10:37:55;;;;;;;13.65;12.40;;;;;;;;;;5116863;28;20470;-82
2021/04/19 10:40:22;;;;;;;13.05;11.75;;;;;;;;;;5108119;28;20032;-80
2021/04/19 10:42:48;;;;;;;13.23;11.70;;;;;;;;;;5104067;28;20039;-81
2021/04/19 10:45:15;;;;;;;12.55;11.27;;;;;;;;;;5123203;28;20485;-82
2021/04/19 10:47:41;;;;;;;13.65;11.20;;;;;;;;;;5122849;28;20116;-80
2021/04/19 10:50:09;;;;;;;12.77;11.55;;;;;;;;;;5120367;28;20111;-81
2021/04/19 10:52:35;;;;;;;12.48;10.18;;;;;;;;;;5122883;28;20043;-81
2021/04/19 10:55:06;;;;;;;11.52;10.43;;;;;;;;;;5122875;28;20462;-82
2021/04/19 10:57:32;;;;;;;11.98;10.88;;;;;;;;;;5123241;28;20051;-82
2021/04/19 10:59:59;;;;;;;13.85;10.73;;;;;;;;;;5117355;28;20039;-80
2021/04/19 11:02:27;;;;;;;11.68;10.57;;;;;;;;;;5096027;28;20038;-79
2021/04/19 11:04:54;;;;;;;14.05;11.70;;;;;;;;;;5114383;28;20040;-79
2021/04/19 11:07:27;;;;;;;11.85;10.75;;;;;;;;;;5117710;28;20050;-83
2021/04/19 11:10:13;;;;;;;12.13;10.93;;;;;;;;;;5107559;28;20052;-80
2021/04/19 11:12:40;;;;;;;12.30;10.98;;;;;;;;;;5116659;28;20036;-79
2021/04/19 11:15:13;;;;;;;12.05;10.95;;;;;;;;;;5098646;28;20444;-82
2021/04/19 11:17:40;;;;;;;12.10;10.93;;;;;;;;;;5103630;28;20039;-79
2021/04/19 11:20:26;;;;;;;13.45;11.55;;;;;;;;;;5113624;28;20043;-82
2021/04/19 11:22:52;;;;;;;11.75;10.38;;;;;;;;;;5117577;28;20073;-84
2021/04/19 11:25:26;;;;;;;10.68;9.55;;;;;;;;;;5099667;28;20585;-80
2021/04/19 11:27:54;;;;;;;12.73;11.25;;;;;;;;;;5075597;28;20051;-85
2021/04/19 11:30:27;;;;;;;12.15;11.05;;;;;;;;;;5123613;28;20103;-81
2021/04/19 11:33:02;;;;;;;11.20;10.20;;;;;;;;;;5121967;28;20086;-83
2021/04/19 11:35:34;;;;;;;12.95;11.75;;;;;;;;;;5098679;28;20089;-79
2021/04/19 11:38:02;;;;;;;13.32;12.02;;;;;;;;;;5113609;28;20063;-80
2021/04/19 11:40:51;;;;;;;12.98;11.68;;;;;;;;;;5119756;28;20051;-81
2021/04/19 11:43:19;;;;;;;13.48;12.07;;;;;;;;;;5113021;28;20059;-81
2021/04/19 11:45:46;;;;;;;12.15;10.95;;;;;;;;;;5118749;28;20028;-81
2021/04/19 11:48:13;;;;;;;12.85;11.32;;;;;;;;;;5118749;28;20038;-81
2021/04/19 11:50:42;;;;;;;13.57;12.18;;;;;;;;;;5127155;28;20044;-83
2021/04/19 11:53:11;;;;;;;14.02;12.63;;;;;;;;;;5126967;28;20043;-82
2021/04/19 11:55:39;;;;;;;14.63;13.02;;;;;;;;;;5128787;28;20461;-82
2021/04/19 11:58:05;;;;;;;14.15;12.45;;;;;;;;;;5111655;28;20123;-84
2021/04/19 12:00:31;;;;;;;14.05;12.70;;;;;;;;;;5117433;28;20067;-81
2021/04/19 12:02:58;;;;;;;13.60;12.30;;;;;;;;;;5127160;28;20106;-81
2021/04/19 12:05:24;;;;;;;14.10;11.73;;;;;;;;;;5112340;28;20565;-82
2021/04/19 12:07:50;;;;;;;13.23;11.15;;;;;;;;;;5120048;28;20051;-81
2021/04/19 12:10:17;;;;;;;12.48;10.80;;;;;;;;;;5109964;28;20074;-82
2021/04/19 12:12:43;;;;;;;12.15;10.95;;;;;;;;;;5129968;28;20040;-81
2021/04/19 12:15:09;;;;;;;12.63;11.43;;;;;;;;;;5113160;28;20107;-79
2021/04/19 12:17:35;;;;;;;11.63;10.52;;;;;;;;;;5130193;28;20067;-79
2021/04/19 12:20:02;;;;;;;13.88;11.27;;;;;;;;;;5120748;28;20040;-80
2021/04/19 12:22:28;;;;;;;11.90;10.80;;;;;;;;;;5107455;28;20056;-85
2021/04/19 12:24:55;;;;;;;12.45;11.15;;;;;;;;;;5097811;28;20050;-81
2021/04/19 12:27:21;;;;;;;12.48;10.77;;;;;;;;;;4998133;28;20067;-79
